Decoded Metar for LELL (SABADELL in SPAIN) (IATA:QSA) | Meteo·Mobile Aviation Weather
aviador You're here:

LELL Decoded Metar

SABADELL in SPAIN
Report Time2019-09-23 09:00:00
UTC Time2019-09-23 09:36:10
Flight Rules vfr VFR
Wind200° at 04 kt
W.Decomp.*RWY 13: 1.4 kt HW 3.8 kt RCW
Visibility9999 m
Phenomena:N/A
Clouds:Scattered 018 Hf
Expected CloudBase > 3,200 ft AGL from Temp-Dew spread
CeilingNone
Temp23°C (ISA +9)
Dew Point15°C (61% RH)
QNH1020 hPa
Density Alt1,519 ft
Elevation485 ft
Report Wrong Elevation
Raw Report
LELL 230900Z 20004KT 140V250 9999 SCT018 23/15 Q1020=

Extra information for LELL:More info

Metar Taf Metar & Taf Last 4 Metars F.Rules Stats Wind Profile Meteogram Temp Stats Airport Information Weather charts Add Link Nearby VenuesMetar ALERT Operation Metar Decoded Social comments

Aeroclub BS Web Page